Time;durP1;ratioP1;P1;durP2;ratioP2;P2;SDS_P1;SDS_P2;PMS_P1;PMS_P2;Temp;Humidity;BMP_temperature;BMP_pressure;BME280_temperature;BME280_humidity;BME280_pressure;Samples;Min_cycle;Max_cycle;Signal;HPM_P1;HPM_P2
2024/01/11 00:01:04;;;;;;;40.65;21.50;;;;;;;-4.98;71.14;99575.97;4929097;27;104314;-62
2024/01/11 00:03:32;;;;;;;42.25;22.90;;;;;;;-5.07;71.36;99576.28;4928772;28;103244;-63
2024/01/11 00:06:02;;;;;;;49.72;24.98;;;;;;;-5.14;71.74;99585.13;4928090;28;102649;-62
2024/01/11 00:08:30;;;;;;;41.03;20.77;;;;;;;-5.23;72.44;99581.91;4936578;27;103001;-62
2024/01/11 00:10:58;;;;;;;40.28;22.88;;;;;;;-5.12;71.88;99573.00;4922104;28;104068;-63
2024/01/11 00:13:26;;;;;;;42.00;22.85;;;;;;;-5.13;71.65;99573.91;4924462;28;103203;-62
2024/01/11 00:15:54;;;;;;;29.02;15.75;;;;;;;-5.02;71.66;99574.41;4929928;28;102982;-62
2024/01/11 00:18:23;;;;;;;39.13;20.38;;;;;;;-5.00;70.49;99575.22;4929227;28;102853;-62
2024/01/11 00:20:52;;;;;;;44.33;22.90;;;;;;;-5.22;71.33;99577.59;4925840;28;104361;-62
2024/01/11 00:23:20;;;;;;;41.72;21.65;;;;;;;-5.28;71.89;99575.19;4924396;27;103239;-63
2024/01/11 00:25:48;;;;;;;35.42;18.42;;;;;;;-5.14;71.88;99579.97;4928220;28;102627;-63
2024/01/11 00:28:16;;;;;;;41.42;21.52;;;;;;;-5.25;71.56;99583.72;4915929;27;104058;-63
2024/01/11 00:30:44;;;;;;;41.72;21.90;;;;;;;-5.23;71.76;99581.91;4919373;28;104544;-63
2024/01/11 00:33:12;;;;;;;25.33;15.05;;;;;;;-5.14;71.25;99570.47;4929179;28;103164;-63
2024/01/11 00:35:41;;;;;;;32.50;18.67;;;;;;;-5.06;71.15;99575.38;4928889;28;102610;-63
2024/01/11 00:38:10;;;;;;;44.15;22.75;;;;;;;-5.21;70.73;99584.47;4929325;28;103528;-63
2024/01/11 00:40:38;;;;;;;32.80;19.33;;;;;;;-5.17;71.23;99584.31;4930185;28;103308;-63
2024/01/11 00:43:06;;;;;;;43.60;23.08;;;;;;;-5.17;70.90;99581.72;4927482;28;105283;-63
2024/01/11 00:45:34;;;;;;;40.92;21.02;;;;;;;-5.29;71.42;99586.41;4925716;28;102664;-64
2024/01/11 00:48:03;;;;;;;47.08;23.17;;;;;;;-5.39;71.76;99585.88;4919023;27;102813;-63
2024/01/11 00:50:31;;;;;;;41.55;22.20;;;;;;;-5.32;72.17;99592.53;4925586;28;104031;-63
2024/01/11 00:53:03;;;;;;;34.53;19.27;;;;;;;-5.26;72.02;99594.09;4928900;28;103207;-62
2024/01/11 00:55:31;;;;;;;44.72;22.55;;;;;;;-5.23;71.56;99587.06;4919071;28;102684;-66
2024/01/11 00:57:59;;;;;;;43.22;22.45;;;;;;;-5.23;71.38;99592.25;4927091;28;102781;-62
2024/01/11 01:00:27;;;;;;;46.22;21.60;;;;;;;-5.34;71.66;99584.81;4926787;28;104073;-63
2024/01/11 01:02:55;;;;;;;41.40;19.15;;;;;;;-5.25;71.80;99586.28;4921323;28;104135;-63
2024/01/11 01:05:23;;;;;;;34.63;16.42;;;;;;;-5.22;71.49;99588.78;4925258;28;102524;-63
2024/01/11 01:07:52;;;;;;;40.55;21.63;;;;;;;-5.17;71.14;99589.47;4928381;28;102683;-63
2024/01/11 01:10:22;;;;;;;35.70;19.48;;;;;;;-5.21;70.69;99589.63;4920622;27;104318;-62
2024/01/11 01:12:51;;;;;;;40.35;20.98;;;;;;;-5.29;71.26;99584.69;4933145;28;104766;-63
2024/01/11 01:15:19;;;;;;;39.80;20.40;;;;;;;-5.31;71.13;99588.22;4923069;28;102734;-62
2024/01/11 01:17:47;;;;;;;37.47;19.80;;;;;;;-5.31;70.99;99591.63;4943403;27;102808;-62
2024/01/11 01:20:15;;;;;;;34.00;19.52;;;;;;;-5.37;71.46;99584.94;4924646;28;104261;-62
2024/01/11 01:22:43;;;;;;;40.55;20.50;;;;;;;-5.41;71.53;99585.91;4922738;28;104347;-62
2024/01/11 01:25:11;;;;;;;41.75;21.30;;;;;;;-5.48;71.47;99581.81;4929348;28;102706;-62
2024/01/11 01:27:41;;;;;;;42.47;21.55;;;;;;;-5.44;72.30;99590.31;4928032;28;104232;-70
2024/01/11 01:30:09;;;;;;;40.03;21.45;;;;;;;-5.48;71.90;99586.97;4930579;28;103687;-70
2024/01/11 01:32:37;;;;;;;39.70;20.30;;;;;;;-5.48;72.41;99591.31;4921593;27;103374;-63
2024/01/11 01:35:06;;;;;;;42.58;22.30;;;;;;;-5.72;72.41;99596.28;4929587;28;102639;-62
2024/01/11 01:37:34;;;;;;;35.65;20.05;;;;;;;-5.64;73.15;99603.81;4920658;28;102831;-70
2024/01/11 01:40:02;;;;;;;41.13;21.40;;;;;;;-5.69;72.82;99603.94;4928659;28;104244;-62
2024/01/11 01:42:30;;;;;;;39.03;20.17;;;;;;;-5.70;72.85;99612.56;4928216;28;103246;-64
2024/01/11 01:44:59;;;;;;;43.67;22.58;;;;;;;-5.94;73.95;99619.25;4929811;28;102642;-63
2024/01/11 01:47:28;;;;;;;35.85;18.73;;;;;;;-5.74;73.88;99621.28;4927770;28;102878;-62
2024/01/11 01:49:57;;;;;;;45.17;23.15;;;;;;;-5.63;73.14;99619.25;4922991;28;104375;-62
2024/01/11 01:52:25;;;;;;;42.17;20.25;;;;;;;-5.67;72.85;99622.81;4925986;28;104904;-62
2024/01/11 01:54:54;;;;;;;29.48;17.58;;;;;;;-5.53;72.86;99625.84;4936339;27;102679;-63
2024/01/11 01:57:22;;;;;;;44.45;23.08;;;;;;;-5.45;72.63;99628.22;4928299;28;104097;-62
2024/01/11 01:59:52;;;;;;;40.17;20.92;;;;;;;-5.49;71.59;99624.00;4932235;28;103322;-62
2024/01/11 02:02:22;;;;;;;45.42;20.77;;;;;;;-5.45;71.69;99627.34;4931041;27;103262;-62
2024/01/11 02:04:51;;;;;;;33.13;17.92;;;;;;;-5.39;71.10;99622.00;4930506;28;104875;-63
2024/01/11 02:07:20;;;;;;;37.13;21.10;;;;;;;-5.40;70.41;99628.88;4930103;27;104618;-63
2024/01/11 02:09:48;;;;;;;30.23;18.17;;;;;;;-5.58;70.62;99627.72;4931304;27;104358;-61
2024/01/11 02:12:16;;;;;;;36.05;19.15;;;;;;;-5.52;71.29;99629.25;4930729;28;103258;-62
2024/01/11 02:14:44;;;;;;;34.78;19.92;;;;;;;-5.58;70.87;99622.53;4913139;27;103731;-63
2024/01/11 02:17:12;;;;;;;38.85;19.98;;;;;;;-5.58;71.15;99624.25;4930401;27;103804;-63
2024/01/11 02:19:42;;;;;;;33.53;19.40;;;;;;;-5.57;71.06;99629.38;4927739;28;103211;-62
2024/01/11 02:22:16;;;;;;;40.20;19.20;;;;;;;-5.73;70.68;99633.28;4929476;28;103294;-64
2024/01/11 02:24:45;;;;;;;49.63;21.45;;;;;;;-5.74;71.79;99626.44;4926745;28;102693;-63
2024/01/11 02:27:14;;;;;;;40.10;20.67;;;;;;;-5.77;71.48;99631.69;4927066;28;103069;-63
2024/01/11 02:29:44;;;;;;;40.10;18.80;;;;;;;-5.85;72.29;99635.31;4925618;28;105584;-62
2024/01/11 02:32:13;;;;;;;40.03;19.67;;;;;;;-5.74;72.49;99626.44;4924627;28;103675;-63
2024/01/11 02:34:42;;;;;;;40.75;21.30;;;;;;;-5.78;71.87;99624.84;4930936;28;102623;-63
2024/01/11 02:37:10;;;;;;;34.95;18.48;;;;;;;-5.83;72.23;99630.09;4919627;27;102867;-62
2024/01/11 02:39:40;;;;;;;44.92;22.27;;;;;;;-5.89;72.21;99635.44;4925946;28;103251;-63
2024/01/11 02:42:09;;;;;;;41.13;22.27;;;;;;;-5.90;72.31;99634.59;4931265;28;104697;-62
2024/01/11 02:44:37;;;;;;;36.45;19.88;;;;;;;-5.82;72.76;99631.81;4929659;28;102981;-62
2024/01/11 02:47:05;;;;;;;35.03;17.52;;;;;;;-5.75;72.71;99629.91;4927761;28;104210;-63
2024/01/11 02:49:33;;;;;;;39.33;18.85;;;;;;;-5.69;72.44;99630.56;4929751;28;104205;-63
2024/01/11 02:52:04;;;;;;;41.00;20.80;;;;;;;-5.78;71.48;99630.00;4928422;28;103233;-63
2024/01/11 02:54:32;;;;;;;38.70;19.05;;;;;;;-5.89;71.95;99622.56;4927997;28;102753;-64
2024/01/11 02:57:00;;;;;;;34.20;19.08;;;;;;;-5.89;72.00;99623.38;4930097;27;104101;-63
2024/01/11 02:59:29;;;;;;;39.97;19.92;;;;;;;-5.90;71.68;99619.09;4925694;28;104625;-63
2024/01/11 03:01:58;;;;;;;38.90;19.73;;;;;;;-5.87;71.89;99615.59;4924242;27;105361;-63
2024/01/11 03:04:26;;;;;;;34.22;17.20;;;;;;;-5.78;72.34;99617.09;4930365;28;102675;-63
2024/01/11 03:06:54;;;;;;;44.70;20.65;;;;;;;-5.83;71.34;99614.63;4924537;28;104059;-63
2024/01/11 03:09:22;;;;;;;45.45;20.65;;;;;;;-5.85;71.28;99609.50;4928944;28;104210;-63
2024/01/11 03:11:50;;;;;;;39.00;20.08;;;;;;;-5.84;71.46;99618.94;4929482;28;102688;-63
2024/01/11 03:14:20;;;;;;;37.65;19.45;;;;;;;-5.83;71.75;99612.03;4926567;28;102609;-63
2024/01/11 03:16:50;;;;;;;37.53;20.63;;;;;;;-5.83;71.87;99612.91;4920033;27;104199;-64
2024/01/11 03:19:18;;;;;;;34.65;17.15;;;;;;;-5.81;71.77;99609.44;4923461;28;103976;-64
2024/01/11 03:21:47;;;;;;;37.90;20.38;;;;;;;-5.86;71.81;99607.81;4926236;28;103012;-64
2024/01/11 03:24:15;;;;;;;30.95;18.13;;;;;;;-5.82;72.25;99600.84;4929063;28;103155;-64
2024/01/11 03:26:43;;;;;;;32.92;18.55;;;;;;;-5.79;71.76;99611.09;4929759;28;102775;-64
2024/01/11 03:29:11;;;;;;;40.50;20.88;;;;;;;-5.89;72.29;99607.06;4926637;28;103033;-63
2024/01/11 03:31:41;;;;;;;45.35;22.08;;;;;;;-5.87;72.30;99610.44;4929872;28;104114;-63
2024/01/11 03:34:10;;;;;;;40.38;21.08;;;;;;;-6.09;72.58;99610.19;4929532;28;102628;-63
2024/01/11 03:36:39;;;;;;;31.83;17.17;;;;;;;-6.01;73.08;99603.13;4923729;28;103604;-63
2024/01/11 03:39:07;;;;;;;29.48;16.75;;;;;;;-5.92;72.70;99597.69;4918878;27;103311;-63
2024/01/11 03:41:35;;;;;;;38.00;19.60;;;;;;;-5.90;71.87;99603.63;4924141;28;104742;-63
2024/01/11 03:44:04;;;;;;;38.97;20.23;;;;;;;-6.00;71.43;99602.22;4928434;28;102838;-62
2024/01/11 03:46:32;;;;;;;38.30;22.25;;;;;;;-6.11;71.69;99602.50;4929812;28;103868;-63
2024/01/11 03:48:59;;;;;;;42.53;20.60;;;;;;;-6.19;72.29;99607.88;4923448;28;104150;-63
2024/01/11 03:51:29;;;;;;;29.02;15.25;;;;;;;-6.15;72.07;99605.22;4928454;27;103210;-63
2024/01/11 03:53:57;;;;;;;33.55;18.45;;;;;;;-6.09;72.48;99595.59;4928252;27;103069;-63
2024/01/11 03:56:27;;;;;;;30.33;15.57;;;;;;;-6.02;72.42;99596.25;4939977;27;102654;-64
2024/01/11 03:58:55;;;;;;;40.00;18.70;;;;;;;-5.98;71.85;99603.03;4929957;28;104350;-63
2024/01/11 04:01:23;;;;;;;38.50;19.40;;;;;;;-6.13;71.82;99593.97;4919884;27;103223;-63
2024/01/11 04:03:51;;;;;;;44.55;20.85;;;;;;;-6.11;71.89;99593.94;4925594;27;102799;-63
2024/01/11 04:06:29;;;;;;;36.00;20.98;;;;;;;-6.09;71.38;99598.16;4929637;28;103239;-64
2024/01/11 04:09:16;;;;;;;36.28;18.95;;;;;;;-6.12;71.45;99590.50;4924143;27;104139;-64
2024/01/11 04:11:57;;;;;;;37.40;17.98;;;;;;;-6.07;71.55;99587.81;4920441;28;103098;-65
2024/01/11 04:14:25;;;;;;;32.05;18.17;;;;;;;-6.12;71.22;99587.91;4925349;28;102652;-64
2024/01/11 04:16:53;;;;;;;35.55;18.63;;;;;;;-6.20;71.19;99593.28;4927250;28;103598;-65
2024/01/11 04:19:20;;;;;;;31.48;19.48;;;;;;;-6.36;72.09;99598.00;4927475;28;103174;-68
2024/01/11 04:21:50;;;;;;;34.17;18.63;;;;;;;-6.35;72.87;99604.00;4934970;27;103272;-65
2024/01/11 04:24:20;;;;;;;41.67;20.27;;;;;;;-6.37;73.02;99610.91;4932291;28;103097;-65
2024/01/11 04:26:48;;;;;;;42.10;20.92;;;;;;;-6.30;72.93;99591.84;4928957;28;102720;-65
2024/01/11 04:29:16;;;;;;;41.17;22.08;;;;;;;-6.30;72.88;99601.28;4922970;28;103214;-65
2024/01/11 04:31:44;;;;;;;41.58;20.60;;;;;;;-6.24;73.41;99596.00;4927351;28;103353;-64
2024/01/11 04:34:12;;;;;;;31.90;16.40;;;;;;;-6.21;72.96;99598.47;4924243;28;102606;-65
2024/01/11 04:36:40;;;;;;;32.53;17.30;;;;;;;-6.17;73.06;99593.22;4926967;28;102738;-65
2024/01/11 04:39:08;;;;;;;42.17;20.92;;;;;;;-6.28;71.83;99597.78;4924852;28;104384;-66
2024/01/11 04:41:37;;;;;;;36.30;20.70;;;;;;;-6.42;73.09;99597.31;4923543;27;103266;-65
2024/01/11 04:44:06;;;;;;;38.10;18.92;;;;;;;-6.48;73.50;99592.28;4938990;28;103011;-64
2024/01/11 04:46:34;;;;;;;31.88;18.33;;;;;;;-6.35;74.21;99594.53;4926937;28;102678;-64
2024/01/11 04:49:02;;;;;;;29.33;16.02;;;;;;;-6.29;73.36;99603.00;4923519;28;104352;-65
2024/01/11 04:51:30;;;;;;;33.92;18.27;;;;;;;-6.22;72.61;99599.34;4923857;28;104053;-65
2024/01/11 04:54:00;;;;;;;45.33;21.10;;;;;;;-6.23;71.90;99593.38;4926240;28;102944;-65
2024/01/11 04:56:29;;;;;;;36.38;19.80;;;;;;;-6.24;72.15;99591.66;4926568;27;102638;-65
2024/01/11 04:58:59;;;;;;;43.10;20.55;;;;;;;-6.50;72.09;99589.75;4923501;28;104242;-64
2024/01/11 05:01:29;;;;;;;42.22;20.73;;;;;;;-6.51;73.01;99593.22;4919313;28;103834;-65
2024/01/11 05:03:57;;;;;;;34.03;19.65;;;;;;;-6.57;73.60;99594.22;4916941;27;102725;-65
2024/01/11 05:06:25;;;;;;;38.88;20.52;;;;;;;-6.59;73.09;99596.00;4931469;27;102715;-65
2024/01/11 05:08:56;;;;;;;37.67;19.52;;;;;;;-6.50;73.71;99598.34;4923470;28;104428;-65
2024/01/11 05:11:25;;;;;;;38.97;19.65;;;;;;;-6.38;73.45;99598.91;4925056;28;104215;-65
2024/01/11 05:13:53;;;;;;;38.17;19.35;;;;;;;-6.48;72.68;99607.75;4924437;28;102811;-65
2024/01/11 05:16:24;;;;;;;37.40;18.42;;;;;;;-6.59;73.46;99610.59;4926389;28;104205;-65
2024/01/11 05:19:04;;;;;;;33.67;16.55;;;;;;;-6.55;73.82;99612.22;4927032;28;103720;-65
2024/01/11 05:21:33;;;;;;;32.15;16.80;;;;;;;-6.45;73.31;99612.84;4927845;27;103176;-65
2024/01/11 05:24:01;;;;;;;37.38;17.38;;;;;;;-6.37;72.98;99614.34;4922968;27;102968;-65
2024/01/11 05:26:29;;;;;;;42.28;20.42;;;;;;;-6.46;72.05;99621.47;4931201;27;103860;-65
2024/01/11 05:28:57;;;;;;;32.28;15.45;;;;;;;-6.48;72.76;99618.94;4926654;28;103908;-65
2024/01/11 05:31:29;;;;;;;36.05;16.88;;;;;;;-6.36;73.10;99622.94;4929085;28;103198;-65
2024/01/11 05:33:57;;;;;;;39.95;19.75;;;;;;;-6.33;72.37;99628.00;4928314;28;104537;-65
2024/01/11 05:36:26;;;;;;;42.58;21.05;;;;;;;-6.86;73.42;99634.41;4928245;28;103744;-63
2024/01/11 05:38:54;;;;;;;40.72;20.77;;;;;;;-6.67;74.02;99634.84;4930652;28;103258;-63
2024/01/11 05:41:22;;;;;;;43.95;21.25;;;;;;;-6.60;73.76;99638.13;4928253;27;103279;-63
2024/01/11 05:43:50;;;;;;;45.05;21.63;;;;;;;-6.68;73.18;99633.16;4925359;28;103066;-63
2024/01/11 05:46:18;;;;;;;35.40;19.23;;;;;;;-6.65;73.10;99637.38;4927811;27;104032;-63
2024/01/11 05:48:47;;;;;;;43.08;19.52;;;;;;;-6.53;73.31;99641.41;4921640;28;104556;-62
2024/01/11 05:51:16;;;;;;;39.83;20.25;;;;;;;-6.46;72.92;99642.09;4922856;27;104095;-64
2024/01/11 05:53:44;;;;;;;42.97;20.00;;;;;;;-6.74;73.09;99648.75;4927603;28;102638;-63
2024/01/11 05:56:12;;;;;;;35.40;17.20;;;;;;;-6.70;73.73;99646.94;4928717;28;103100;-64
2024/01/11 05:58:41;;;;;;;42.50;20.55;;;;;;;-6.69;73.38;99656.38;4935726;28;103601;-64
2024/01/11 06:01:12;;;;;;;34.47;19.75;;;;;;;-6.60;74.06;99658.75;4929422;28;103116;-63
2024/01/11 06:03:41;;;;;;;39.45;20.25;;;;;;;-6.57;73.67;99656.06;4927450;28;102707;-63
2024/01/11 06:06:11;;;;;;;40.75;21.92;;;;;;;-6.55;72.93;99659.47;4924616;28;104218;-66
2024/01/11 06:08:39;;;;;;;29.83;15.18;;;;;;;-6.52;73.28;99666.28;4913815;27;103343;-63
2024/01/11 06:11:08;;;;;;;27.95;16.63;;;;;;;-6.45;72.71;99652.34;4929506;28;103088;-63
2024/01/11 06:13:36;;;;;;;32.15;17.92;;;;;;;-6.41;72.30;99658.28;4922664;28;104537;-63
2024/01/11 06:16:05;;;;;;;36.08;18.15;;;;;;;-6.40;71.73;99657.41;4927527;28;103115;-63
2024/01/11 06:18:33;;;;;;;34.88;19.40;;;;;;;-6.40;71.94;99654.84;4930825;28;104105;-63
2024/01/11 06:21:01;;;;;;;31.83;21.38;;;;;;;-6.32;71.65;99658.06;4928538;28;103197;-63
2024/01/11 06:23:30;;;;;;;40.10;20.08;;;;;;;-6.36;70.93;99648.72;4931315;28;103118;-72
2024/01/11 06:25:59;;;;;;;29.00;17.70;;;;;;;-6.47;71.83;99646.41;4931469;28;102802;-71
2024/01/11 06:28:27;;;;;;;40.15;19.25;;;;;;;-6.68;72.42;99645.16;4928420;28;103312;-71
2024/01/11 06:30:57;;;;;;;38.25;20.15;;;;;;;-6.59;73.22;99652.72;4922976;27;102957;-71
2024/01/11 06:33:25;;;;;;;28.85;15.77;;;;;;;-6.55;72.83;99656.91;4931985;28;103380;-71
2024/01/11 06:35:53;;;;;;;31.90;18.33;;;;;;;-6.52;72.59;99649.09;4929184;27;104061;-71
2024/01/11 06:38:22;;;;;;;46.25;22.95;;;;;;;-6.55;72.68;99649.16;4924515;28;103230;-71
2024/01/11 06:40:52;;;;;;;45.78;21.02;;;;;;;-6.50;72.76;99642.19;4928183;28;103361;-70
2024/01/11 06:43:22;;;;;;;33.53;15.93;;;;;;;-6.46;73.20;99657.56;4924960;28;103151;-70
2024/01/11 06:45:50;;;;;;;37.30;17.48;;;;;;;-6.40;72.95;99657.41;4935489;28;103503;-70
2024/01/11 06:48:18;;;;;;;41.85;21.95;;;;;;;-6.41;72.66;99658.28;4930400;28;103248;-71
2024/01/11 06:50:47;;;;;;;45.88;19.90;;;;;;;-6.39;72.84;99656.50;4925822;28;104215;-71
2024/01/11 06:53:15;;;;;;;35.63;17.27;;;;;;;-6.35;72.47;99658.97;4924723;27;103476;-72
2024/01/11 06:55:44;;;;;;;40.72;21.83;;;;;;;-6.33;72.81;99653.78;4931781;27;104251;-71
2024/01/11 06:58:13;;;;;;;38.63;19.98;;;;;;;-6.35;72.90;99665.88;4929485;28;105394;-71
2024/01/11 07:00:43;;;;;;;40.95;22.20;;;;;;;-6.41;72.86;99672.00;4929110;28;103365;-71
2024/01/11 07:03:12;;;;;;;49.58;21.98;;;;;;;-6.51;73.92;99680.84;4926985;28;103035;-71
2024/01/11 07:05:40;;;;;;;42.55;22.60;;;;;;;-6.49;74.28;99689.41;4929982;28;104230;-71
2024/01/11 07:08:09;;;;;;;47.03;21.38;;;;;;;-6.47;74.26;99691.94;4928621;28;103389;-71
2024/01/11 07:10:39;;;;;;;36.58;20.13;;;;;;;-6.45;73.83;99685.88;4931617;28;103525;-64
2024/01/11 07:13:10;;;;;;;40.28;21.73;;;;;;;-6.39;73.91;99679.72;4931123;28;103096;-71
2024/01/11 07:15:39;;;;;;;34.55;19.83;;;;;;;-6.33;73.48;99687.31;4932939;27;103249;-72
2024/01/11 07:18:07;;;;;;;41.60;19.73;;;;;;;-6.32;72.77;99691.56;4933896;28;103220;-71
2024/01/11 07:20:36;;;;;;;35.47;18.63;;;;;;;-6.31;72.44;99687.25;4926963;28;104213;-72
2024/01/11 07:23:04;;;;;;;32.15;16.17;;;;;;;-6.26;72.62;99691.44;4927411;27;102676;-71
2024/01/11 07:25:34;;;;;;;40.85;22.23;;;;;;;-6.68;72.00;99700.16;4925640;28;104029;-70
2024/01/11 07:28:03;;;;;;;54.85;21.48;;;;;;;-6.84;74.05;99699.66;4926429;28;102782;-64
2024/01/11 07:30:31;;;;;;;42.08;22.23;;;;;;;-6.82;74.13;99702.19;4927889;28;103207;-63
2024/01/11 07:33:00;;;;;;;37.70;21.65;;;;;;;-6.60;74.48;99717.16;4927347;28;103798;-64
2024/01/11 07:35:29;;;;;;;34.58;17.45;;;;;;;-6.55;73.78;99708.44;4928885;28;103287;-71
2024/01/11 07:37:58;;;;;;;46.85;21.52;;;;;;;-6.39;73.98;99705.47;4921589;27;104496;-71
2024/01/11 07:40:26;;;;;;;38.15;16.98;;;;;;;-6.31;72.88;99701.00;4945130;28;103236;-72
2024/01/11 07:42:55;;;;;;;42.85;18.98;;;;;;;-6.24;72.28;99705.13;4930407;28;102757;-64
2024/01/11 07:45:23;;;;;;;36.72;19.85;;;;;;;-6.59;71.28;99719.72;4932438;28;103957;-64
2024/01/11 07:47:52;;;;;;;40.58;20.92;;;;;;;-6.53;73.45;99724.69;4929753;28;104042;-72
2024/01/11 07:50:22;;;;;;;31.10;17.50;;;;;;;-6.32;73.38;99717.38;4927348;28;103450;-72
2024/01/11 07:52:51;;;;;;;46.08;23.55;;;;;;;-6.44;72.76;99718.50;4928651;28;104309;-71
2024/01/11 07:55:23;;;;;;;40.45;22.20;;;;;;;-6.81;74.26;99744.25;4932082;28;104251;-71
2024/01/11 07:57:52;;;;;;;37.25;19.10;;;;;;;-6.56;75.35;99745.41;4934606;28;104429;-73
2024/01/11 08:00:21;;;;;;;43.30;21.42;;;;;;;-6.37;74.95;99760.44;4928901;27;103060;-71
2024/01/11 08:02:50;;;;;;;35.70;19.77;;;;;;;-6.30;75.04;99759.44;4935099;28;102770;-72
2024/01/11 08:05:19;;;;;;;37.28;20.48;;;;;;;-5.96;75.29;99760.31;4933785;28;104114;-72
2024/01/11 08:07:49;;;;;;;40.53;20.85;;;;;;;-5.70;74.24;99746.75;4931738;28;105144;-71
2024/01/11 08:10:17;;;;;;;49.28;22.77;;;;;;;-5.57;72.56;99755.88;4933363;28;103228;-71
2024/01/11 08:12:47;;;;;;;42.47;22.88;;;;;;;-5.42;72.13;99767.53;4931138;28;102829;-71
2024/01/11 08:15:15;;;;;;;39.85;19.92;;;;;;;-5.23;71.69;99767.88;4923004;28;103976;-71
2024/01/11 08:17:45;;;;;;;38.92;18.80;;;;;;;-5.01;71.04;99775.03;4928366;28;104124;-72
2024/01/11 08:20:16;;;;;;;41.35;22.52;;;;;;;-4.91;69.67;99771.31;4925670;28;103416;-71
2024/01/11 08:22:45;;;;;;;36.42;18.15;;;;;;;-4.81;69.97;99771.03;4908819;27;103195;-72
2024/01/11 08:25:15;;;;;;;43.90;22.77;;;;;;;-4.78;70.32;99773.53;4922527;28;103994;-63
2024/01/11 08:27:43;;;;;;;43.88;22.35;;;;;;;-4.53;69.94;99773.66;4921882;28;104444;-64
2024/01/11 08:30:12;;;;;;;41.35;20.73;;;;;;;-4.39;69.51;99778.41;4924760;28;103276;-64
2024/01/11 08:32:41;;;;;;;33.22;19.70;;;;;;;-4.46;69.78;99775.16;4923305;28;102728;-64
2024/01/11 08:35:11;;;;;;;41.75;21.52;;;;;;;-4.51;70.96;99782.19;4926561;28;102970;-64
2024/01/11 08:37:40;;;;;;;44.20;20.85;;;;;;;-4.24;70.86;99775.34;4924680;28;103804;-71
2024/01/11 08:40:09;;;;;;;35.45;17.50;;;;;;;-4.17;70.27;99765.63;4927744;28;103210;-70
2024/01/11 08:42:39;;;;;;;34.47;20.17;;;;;;;-3.97;69.67;99771.91;4924719;28;102642;-71
2024/01/11 08:45:08;;;;;;;45.25;23.52;;;;;;;-3.78;68.59;99773.00;4927570;27;102638;-72
2024/01/11 08:47:38;;;;;;;41.03;21.10;;;;;;;-3.62;68.56;99773.34;4926998;28;102987;-72
2024/01/11 08:50:08;;;;;;;47.30;22.45;;;;;;;-3.53;67.90;99762.66;4921965;28;103743;-70
2024/01/11 08:52:39;;;;;;;39.90;21.75;;;;;;;-3.48;67.84;99764.25;4930027;27;103150;-71
2024/01/11 08:55:07;;;;;;;45.22;24.30;;;;;;;-3.44;68.29;99771.03;4929512;27;102982;-71
2024/01/11 08:57:36;;;;;;;40.35;19.42;;;;;;;-3.27;68.81;99763.50;4923572;28;104205;-71
2024/01/11 09:00:07;;;;;;;38.47;22.17;;;;;;;-3.29;68.76;99770.47;4923741;28;103204;-72
2024/01/11 09:02:35;;;;;;;45.45;24.48;;;;;;;-3.10;68.69;99760.31;4929863;27;102698;-71
2024/01/11 09:05:07;;;;;;;42.90;21.55;;;;;;;-3.10;67.63;99764.66;4919742;27;102833;-71
2024/01/11 09:07:37;;;;;;;45.40;24.30;;;;;;;-3.29;68.22;99775.66;4933553;27;103163;-72
2024/01/11 09:10:06;;;;;;;39.47;20.15;;;;;;;-2.98;68.72;99779.75;4926960;28;103186;-72
2024/01/11 09:12:35;;;;;;;39.70;21.15;;;;;;;-2.93;67.93;99782.19;4921876;28;103140;-71
2024/01/11 09:15:07;;;;;;;34.10;19.48;;;;;;;-2.75;67.44;99772.88;4924926;28;104059;-71
2024/01/11 09:17:36;;;;;;;41.65;22.38;;;;;;;-2.84;66.90;99782.69;4925327;28;104715;-72
2024/01/11 09:20:07;;;;;;;45.80;23.45;;;;;;;-2.97;66.66;99786.63;4923494;28;103141;-72
2024/01/11 09:22:35;;;;;;;39.90;23.27;;;;;;;-3.03;69.10;99798.06;4924871;28;102676;-71
2024/01/11 09:25:04;;;;;;;44.58;30.40;;;;;;;-2.97;68.43;99797.00;4923783;28;102660;-72
2024/01/11 09:27:32;;;;;;;43.33;24.05;;;;;;;-2.86;68.35;99802.63;4916280;27;104218;-71
2024/01/11 09:30:00;;;;;;;34.35;21.42;;;;;;;-2.53;66.91;99791.94;4922282;28;104225;-72
2024/01/11 09:32:32;;;;;;;45.50;23.73;;;;;;;-2.33;66.39;99787.72;4925283;28;102904;-71
2024/01/11 09:35:00;;;;;;;42.72;23.95;;;;;;;-2.64;65.75;99791.47;4927006;28;102689;-72
2024/01/11 09:37:28;;;;;;;41.42;23.88;;;;;;;-2.87;67.55;99782.81;4921788;28;104234;-71
2024/01/11 09:39:56;;;;;;;38.67;22.83;;;;;;;-2.51;68.16;99795.28;4925443;28;103319;-72
2024/01/11 09:42:24;;;;;;;35.08;23.83;;;;;;;-2.58;67.69;99796.44;4922885;28;103893;-71
2024/01/11 09:44:52;;;;;;;36.95;24.73;;;;;;;-2.10;66.92;99791.16;4924664;28;102915;-72
2024/01/11 09:47:22;;;;;;;37.28;21.60;;;;;;;-1.97;66.25;99784.56;4912178;27;103602;-72
2024/01/11 09:49:55;;;;;;;42.63;22.88;;;;;;;-1.62;65.14;99790.06;4924570;28;104298;-71
2024/01/11 09:52:26;;;;;;;45.80;23.23;;;;;;;-1.94;65.29;99788.78;4921095;28;103084;-71
2024/01/11 09:54:55;;;;;;;39.78;27.48;;;;;;;-1.60;65.34;99796.03;4924921;28;103923;-71
2024/01/11 09:57:27;;;;;;;38.67;25.45;;;;;;;-1.40;63.97;99796.94;4922437;28;104240;-70
2024/01/11 09:59:57;;;;;;;41.30;23.13;;;;;;;-1.64;62.54;99786.69;4918055;28;103194;-70
2024/01/11 10:02:26;;;;;;;44.58;28.65;;;;;;;-1.45;64.12;99785.94;4925388;28;102749;-71
2024/01/11 10:04:56;;;;;;;40.17;26.50;;;;;;;-1.29;62.77;99786.13;4922642;28;102895;-71
2024/01/11 10:07:25;;;;;;;42.67;28.38;;;;;;;-1.35;63.33;99782.88;4928354;28;103290;-70
2024/01/11 10:09:54;;;;;;;36.00;23.10;;;;;;;-1.14;63.42;99769.00;4919829;27;102763;-71
2024/01/11 10:12:25;;;;;;;41.92;25.98;;;;;;;-0.99;63.41;99760.53;4918532;28;103045;-71
2024/01/11 10:14:53;;;;;;;33.10;22.60;;;;;;;-1.19;63.74;99762.25;4925417;28;103818;-71
2024/01/11 10:17:22;;;;;;;32.58;23.10;;;;;;;-1.09;63.37;99759.25;4926340;28;104339;-71
2024/01/11 10:19:54;;;;;;;32.42;22.77;;;;;;;-0.89;62.90;99750.53;4926181;27;103775;-71
2024/01/11 10:22:24;;;;;;;36.00;23.75;;;;;;;-0.85;62.73;99737.34;4926625;28;103120;-71
2024/01/11 10:25:09;;;;;;;30.48;19.42;;;;;;;-0.77;62.05;99742.19;4927756;28;102721;-71
2024/01/11 10:27:37;;;;;;;35.05;19.83;;;;;;;-0.57;61.98;99732.63;4923205;28;103244;-64
2024/01/11 10:30:07;;;;;;;41.10;28.10;;;;;;;-0.55;59.91;99729.03;4923892;28;103245;-63
2024/01/11 10:32:36;;;;;;;37.75;25.70;;;;;;;-0.49;61.69;99730.50;4928817;27;102785;-71
2024/01/11 10:35:05;;;;;;;38.55;27.38;;;;;;;-0.60;61.54;99731.00;4930642;28;102790;-72
2024/01/11 10:37:34;;;;;;;43.30;29.52;;;;;;;-0.44;60.58;99732.91;4927686;28;103032;-72
2024/01/11 10:40:09;;;;;;;43.30;29.17;;;;;;;-0.27;60.63;99742.50;4928517;28;103087;-72
2024/01/11 10:42:39;;;;;;;39.80;28.70;;;;;;;-1.11;62.14;99753.25;4924194;28;102848;-72
2024/01/11 10:45:15;;;;;;;46.35;28.92;;;;;;;-0.48;60.88;99750.41;4930489;28;102643;-72
2024/01/11 10:47:51;;;;;;;43.60;29.73;;;;;;;-1.01;61.24;99754.53;4928656;28;104493;-72
2024/01/11 10:50:20;;;;;;;41.42;27.05;;;;;;;-0.78;62.07;99760.47;4927983;28;104013;-71
2024/01/11 10:53:02;;;;;;;43.53;29.83;;;;;;;-0.47;61.11;99753.84;4934219;28;103168;-72
2024/01/11 10:55:34;;;;;;;39.38;28.30;;;;;;;-0.56;60.51;99753.38;4917820;28;104045;-72
2024/01/11 10:58:03;;;;;;;39.15;26.90;;;;;;;-0.74;61.19;99762.03;4928759;28;104098;-72
2024/01/11 11:00:32;;;;;;;41.70;29.20;;;;;;;-0.47;60.03;99759.03;4927812;28;104190;-72
2024/01/11 11:03:01;;;;;;;45.85;28.90;;;;;;;-0.58;60.37;99763.00;4931344;28;102900;-72
2024/01/11 11:05:30;;;;;;;45.28;30.05;;;;;;;0.04;59.35;99748.81;4931804;28;102674;-72
2024/01/11 11:08:02;;;;;;;46.47;30.58;;;;;;;0.08;58.89;99750.34;4929507;28;104004;-65
2024/01/11 11:10:33;;;;;;;41.47;28.58;;;;;;;-0.02;59.76;99756.00;4931218;27;103378;-65
2024/01/11 11:13:01;;;;;;;39.83;28.73;;;;;;;-0.22;58.20;99759.59;4938654;27;102681;-65
2024/01/11 11:15:33;;;;;;;46.67;29.95;;;;;;;0.18;59.19;99745.53;4927105;28;104134;-65
2024/01/11 11:18:01;;;;;;;40.65;26.55;;;;;;;0.44;59.06;99739.84;4918587;27;104040;-65